createdAt,value
2023-03-19T00:00:43.313Z,97150.00
2023-03-19T00:03:10.590Z,97159.00
2023-03-19T00:05:37.750Z,97158.00
2023-03-19T00:08:05.774Z,97160.00
2023-03-19T00:10:32.835Z,97150.00
2023-03-19T00:12:59.629Z,97157.00
2023-03-19T00:15:26.492Z,97161.00
2023-03-19T00:17:54.171Z,97168.00
2023-03-19T00:20:22.110Z,97159.00
2023-03-19T00:22:48.939Z,97164.00
2023-03-19T00:25:16.113Z,97161.00
2023-03-19T00:27:44.330Z,97153.00
2023-03-19T00:30:11.944Z,97155.00
2023-03-19T00:32:39.400Z,97150.00
2023-03-19T00:35:07.639Z,97165.00
2023-03-19T00:37:35.703Z,97164.00
2023-03-19T00:40:04.699Z,97157.00
2023-03-19T00:42:34.302Z,97149.00
2023-03-19T00:45:01.047Z,97143.00
2023-03-19T00:47:28.038Z,97152.00
2023-03-19T00:49:54.855Z,97152.00
2023-03-19T00:52:21.732Z,97157.00
2023-03-19T00:54:49.999Z,97147.00
2023-03-19T00:57:16.852Z,97163.00
2023-03-19T00:59:43.628Z,97172.00
2023-03-19T01:02:10.756Z,97173.00
2023-03-19T01:04:37.599Z,97174.00
2023-03-19T01:07:04.600Z,97187.00
2023-03-19T01:09:31.572Z,97175.00
2023-03-19T01:11:58.874Z,97164.00
2023-03-19T01:14:25.891Z,97171.00
2023-03-19T01:16:52.921Z,97164.00
2023-03-19T01:19:20.146Z,97165.00
2023-03-19T01:21:47.108Z,97160.00
2023-03-19T01:24:18.097Z,97172.00
2023-03-19T01:26:48.375Z,97151.00
2023-03-19T01:29:22.237Z,97153.00
2023-03-19T01:31:49.136Z,97162.00
2023-03-19T01:34:37.808Z,97145.00
2023-03-19T01:37:14.308Z,97149.00
2023-03-19T01:39:42.546Z,97167.00
2023-03-19T01:42:13.637Z,97177.00
2023-03-19T01:45:00.320Z,97153.00
2023-03-19T01:47:43.864Z,97162.00
2023-03-19T01:50:39.198Z,97160.00
2023-03-19T01:53:32.461Z,97164.00
2023-03-19T01:56:23.468Z,97164.00
2023-03-19T01:59:21.168Z,97171.00
2023-03-19T02:02:31.417Z,97171.00
2023-03-19T02:05:11.202Z,97174.00
2023-03-19T02:07:42.621Z,97178.00
2023-03-19T02:10:14.881Z,97173.00
2023-03-19T02:12:42.352Z,97168.00
2023-03-19T02:15:09.720Z,97161.00
2023-03-19T02:17:37.314Z,97160.00
2023-03-19T02:20:34.910Z,97156.00
2023-03-19T02:23:30.937Z,97161.00
2023-03-19T02:26:13.559Z,97168.00
2023-03-19T02:28:45.240Z,97154.00
2023-03-19T02:31:16.830Z,97164.00
2023-03-19T02:33:44.317Z,97146.00
2023-03-19T02:36:17.894Z,97149.00
2023-03-19T02:38:48.534Z,97144.00
2023-03-19T02:41:15.580Z,97152.00
2023-03-19T02:43:43.510Z,97153.00
2023-03-19T02:46:13.125Z,97152.00
2023-03-19T02:48:41.317Z,97160.00
2023-03-19T02:51:08.644Z,97152.00
2023-03-19T02:53:36.061Z,97165.00
2023-03-19T02:56:03.065Z,97163.00
2023-03-19T02:58:29.842Z,97167.00
2023-03-19T03:00:56.751Z,97161.00
2023-03-19T03:03:23.619Z,97154.00
2023-03-19T03:05:50.641Z,97155.00
2023-03-19T03:08:18.496Z,97160.00
2023-03-19T03:10:45.538Z,97165.00
2023-03-19T03:13:12.729Z,97166.00
2023-03-19T03:15:40.150Z,97158.00
2023-03-19T03:18:09.696Z,97158.00
2023-03-19T03:20:36.737Z,97172.00
2023-03-19T03:23:04.759Z,97168.00
2023-03-19T03:25:31.660Z,97168.00
2023-03-19T03:27:58.484Z,97169.00
2023-03-19T03:30:25.675Z,97158.00
2023-03-19T03:32:52.753Z,97165.00
2023-03-19T03:35:22.340Z,97164.00
2023-03-19T03:37:51.114Z,97161.00
2023-03-19T03:40:18.377Z,97166.00
2023-03-19T03:42:46.046Z,97172.00
2023-03-19T03:45:13.304Z,97173.00
2023-03-19T03:47:43.366Z,97167.00
2023-03-19T03:50:11.055Z,97161.00
2023-03-19T03:52:40.926Z,97149.00
2023-03-19T03:55:09.198Z,97161.00
2023-03-19T03:57:37.176Z,97169.00
2023-03-19T04:00:05.784Z,97169.00
2023-03-19T04:02:40.231Z,97160.00
2023-03-19T04:05:08.427Z,97155.00
2023-03-19T04:07:37.613Z,97174.00
2023-03-19T04:10:05.652Z,97173.00
2023-03-19T04:12:32.778Z,97165.00
2023-03-19T04:14:59.587Z,97163.00
2023-03-19T04:17:26.527Z,97149.00
2023-03-19T04:19:53.376Z,97159.00
2023-03-19T04:22:20.747Z,97162.00
2023-03-19T04:24:47.545Z,97167.00
2023-03-19T04:27:14.533Z,97162.00
2023-03-19T04:29:41.615Z,97160.00
2023-03-19T04:32:08.817Z,97154.00
2023-03-19T04:34:37.306Z,97170.00
2023-03-19T04:37:04.647Z,97160.00
2023-03-19T04:39:33.638Z,97158.00
2023-03-19T04:42:00.657Z,97161.00
2023-03-19T04:44:33.215Z,97167.00
2023-03-19T04:47:01.748Z,97163.00
2023-03-19T04:49:32.866Z,97157.00
2023-03-19T04:52:00.762Z,97167.00
2023-03-19T04:54:28.308Z,97187.00
2023-03-19T04:56:55.198Z,97176.00
2023-03-19T04:59:24.638Z,97171.00
2023-03-19T05:01:51.524Z,97170.00
2023-03-19T05:04:21.798Z,97167.00
2023-03-19T05:06:50.190Z,97168.00
2023-03-19T05:09:17.228Z,97183.00
2023-03-19T05:11:44.225Z,97191.00
2023-03-19T05:14:18.547Z,97190.00
2023-03-19T05:17:00.535Z,97188.00
2023-03-19T05:19:34.970Z,97186.00
2023-03-19T05:22:02.332Z,97193.00
2023-03-19T05:24:29.474Z,97188.00
2023-03-19T05:26:57.111Z,97188.00
2023-03-19T05:29:42.393Z,97194.00
2023-03-19T05:32:17.738Z,97178.00
2023-03-19T05:34:44.769Z,97198.00
2023-03-19T05:37:12.067Z,97191.00
2023-03-19T05:39:39.625Z,97192.00
2023-03-19T05:42:09.438Z,97198.00
2023-03-19T05:44:37.247Z,97192.00
2023-03-19T05:47:15.037Z,97203.00
2023-03-19T05:49:47.187Z,97195.00
2023-03-19T05:52:15.167Z,97208.00
2023-03-19T05:54:42.584Z,97206.00
2023-03-19T05:57:18.188Z,97201.00
2023-03-19T05:59:56.973Z,97202.00
2023-03-19T06:02:34.543Z,97205.00
2023-03-19T06:05:21.042Z,97212.00
2023-03-19T06:07:48.630Z,97211.00
2023-03-19T06:10:25.787Z,97209.00
2023-03-19T06:12:55.337Z,97195.00
2023-03-19T06:15:37.831Z,97216.00
2023-03-19T06:18:11.858Z,97223.00
2023-03-19T06:20:38.800Z,97222.00
2023-03-19T06:23:05.950Z,97228.00
2023-03-19T06:25:33.040Z,97215.00
2023-03-19T06:27:59.875Z,97232.00
2023-03-19T06:30:34.511Z,97229.00
2023-03-19T06:33:04.883Z,97232.00
2023-03-19T06:35:33.013Z,97232.00
2023-03-19T06:37:59.934Z,97229.00
2023-03-19T06:40:26.882Z,97242.00
2023-03-19T06:42:53.668Z,97245.00
2023-03-19T06:45:21.505Z,97234.00
2023-03-19T06:47:48.780Z,97234.00
2023-03-19T06:50:16.705Z,97225.00
2023-03-19T06:52:44.893Z,97226.00
2023-03-19T06:55:12.774Z,97241.00
2023-03-19T06:57:40.250Z,97247.00
2023-03-19T07:00:11.411Z,97246.00
2023-03-19T07:02:38.265Z,97229.00
2023-03-19T07:05:05.732Z,97253.00
2023-03-19T07:07:33.167Z,97236.00
2023-03-19T07:10:00.086Z,97248.00
2023-03-19T07:12:30.332Z,97246.00
2023-03-19T07:14:57.414Z,97246.00
2023-03-19T07:17:28.348Z,97261.00
2023-03-19T07:19:55.232Z,97260.00
2023-03-19T07:22:25.810Z,97256.00
2023-03-19T07:24:53.092Z,97272.00
2023-03-19T07:27:20.933Z,97263.00
2023-03-19T07:29:48.707Z,97257.00
2023-03-19T07:32:15.738Z,97274.00
2023-03-19T07:34:42.710Z,97276.00
2023-03-19T07:37:09.764Z,97275.00
2023-03-19T07:39:37.166Z,97278.00
2023-03-19T07:42:05.446Z,97288.00
2023-03-19T07:44:32.319Z,97276.00
2023-03-19T07:46:59.172Z,97264.00
2023-03-19T07:49:26.376Z,97277.00
2023-03-19T07:51:53.293Z,97280.00
2023-03-19T07:54:20.445Z,97283.00
2023-03-19T07:56:47.463Z,97285.00
2023-03-19T07:59:14.584Z,97289.00
2023-03-19T08:01:41.760Z,97275.00
2023-03-19T08:04:08.911Z,97284.00
2023-03-19T08:06:35.696Z,97292.00
2023-03-19T08:09:05.203Z,97298.00
2023-03-19T08:11:34.884Z,97294.00
2023-03-19T08:14:01.734Z,97290.00
2023-03-19T08:16:28.746Z,97289.00
2023-03-19T08:18:55.589Z,97286.00
2023-03-19T08:21:22.662Z,97289.00
2023-03-19T08:23:49.702Z,97292.00
2023-03-19T08:26:16.968Z,97299.00
2023-03-19T08:28:43.906Z,97301.00
2023-03-19T08:31:13.928Z,97292.00
2023-03-19T08:33:41.517Z,97293.00
2023-03-19T08:36:14.256Z,97293.00
2023-03-19T08:38:41.647Z,97292.00
2023-03-19T08:41:09.250Z,97295.00
2023-03-19T08:43:37.835Z,97298.00
2023-03-19T08:46:06.116Z,97294.00
2023-03-19T08:48:33.056Z,97290.00
2023-03-19T08:51:03.176Z,97279.00
2023-03-19T08:53:31.417Z,97279.00
2023-03-19T08:56:02.001Z,97285.00
2023-03-19T08:58:29.538Z,97297.00
2023-03-19T09:01:12.534Z,97291.00
2023-03-19T09:03:41.651Z,97293.00
2023-03-19T09:06:11.245Z,97302.00
2023-03-19T09:08:38.907Z,97303.00
2023-03-19T09:11:06.563Z,97303.00
2023-03-19T09:13:34.316Z,97301.00
2023-03-19T09:16:01.585Z,97311.00
2023-03-19T09:18:28.817Z,97303.00
2023-03-19T09:20:55.819Z,97320.00
2023-03-19T09:23:23.179Z,97321.00
2023-03-19T09:25:51.010Z,97321.00
2023-03-19T09:28:18.110Z,97319.00
2023-03-19T09:30:51.257Z,97312.00
2023-03-19T09:33:21.360Z,97315.00
2023-03-19T09:35:53.833Z,97332.00
2023-03-19T09:38:22.446Z,97336.00
2023-03-19T09:41:12.921Z,97337.00
2023-03-19T09:44:16.459Z,97329.00
2023-03-19T09:47:23.885Z,97335.00
2023-03-19T09:49:52.630Z,97336.00
2023-03-19T09:52:41.990Z,97337.00
2023-03-19T09:55:44.146Z,97337.00
2023-03-19T09:58:31.629Z,97333.00
2023-03-19T10:01:03.274Z,97341.00
2023-03-19T10:03:29.959Z,97333.00
2023-03-19T10:06:15.023Z,97338.00
2023-03-19T10:08:51.753Z,97352.00
2023-03-19T10:11:57.561Z,97349.00
2023-03-19T10:15:08.734Z,97354.00
2023-03-19T10:17:48.995Z,97357.00
2023-03-19T10:20:54.980Z,97358.00
2023-03-19T10:23:45.673Z,97367.00
2023-03-19T10:26:29.901Z,97373.00
2023-03-19T10:29:13.329Z,97376.00
2023-03-19T10:32:09.868Z,97373.00
2023-03-19T10:34:42.076Z,97374.00
2023-03-19T10:37:30.118Z,97375.00
2023-03-19T10:40:02.234Z,97375.00
2023-03-19T10:43:00.847Z,97378.00
2023-03-19T10:45:30.503Z,97382.00
2023-03-19T10:47:59.980Z,97378.00
2023-03-19T10:50:38.594Z,97368.00
2023-03-19T10:53:31.563Z,97376.00
2023-03-19T10:56:23.039Z,97359.00
2023-03-19T10:59:05.610Z,97380.00
2023-03-19T11:01:37.910Z,97371.00
2023-03-19T11:04:23.005Z,97373.00
2023-03-19T11:06:56.960Z,97376.00
2023-03-19T11:09:27.082Z,97383.00
2023-03-19T11:12:29.340Z,97370.00
2023-03-19T11:15:02.756Z,97380.00
2023-03-19T11:17:45.641Z,97374.00
2023-03-19T11:20:27.369Z,97382.00
2023-03-19T11:22:58.622Z,97379.00
2023-03-19T11:25:30.760Z,97377.00
2023-03-19T11:28:03.796Z,97383.00
2023-03-19T11:30:39.404Z,97377.00
2023-03-19T11:36:24.504Z,97369.00
2023-03-19T11:39:33.096Z,97371.00
2023-03-19T11:42:43.690Z,97376.00
2023-03-19T11:45:26.182Z,97376.00
2023-03-19T11:48:15.490Z,97371.00
2023-03-19T11:50:54.342Z,97366.00
2023-03-19T11:53:31.226Z,97388.00
2023-03-19T11:56:33.331Z,97359.00
2023-03-19T11:59:42.468Z,97372.00
2023-03-19T12:02:42.557Z,97376.00
2023-03-19T12:05:33.966Z,97357.00
2023-03-19T12:08:18.756Z,97360.00
2023-03-19T12:11:35.749Z,97359.00
2023-03-19T12:14:37.779Z,97354.00
2023-03-19T12:17:25.322Z,97369.00
2023-03-19T12:20:38.153Z,97357.00
2023-03-19T12:23:33.998Z,97347.00
2023-03-19T12:26:45.643Z,97367.00
2023-03-19T12:29:48.105Z,97361.00
2023-03-19T12:32:56.329Z,97350.00
2023-03-19T12:35:35.707Z,97354.00
2023-03-19T12:38:31.681Z,97345.00
2023-03-19T12:41:12.922Z,97348.00
2023-03-19T12:43:49.289Z,97354.00
2023-03-19T12:47:04.337Z,97351.00
2023-03-19T12:49:59.174Z,97354.00
2023-03-19T12:52:39.253Z,97344.00
2023-03-19T12:55:26.529Z,97351.00
2023-03-19T12:58:18.414Z,97354.00
2023-03-19T13:01:18.963Z,97351.00
2023-03-19T13:04:10.789Z,97352.00
2023-03-19T13:06:48.472Z,97357.00
2023-03-19T13:09:38.091Z,97347.00
2023-03-19T13:12:22.763Z,97357.00
2023-03-19T13:15:19.580Z,97354.00
2023-03-19T13:18:37.049Z,97361.00
2023-03-19T13:21:32.414Z,97350.00
2023-03-19T13:24:31.235Z,97355.00
2023-03-19T13:27:03.711Z,97334.00
2023-03-19T13:29:33.895Z,97347.00
2023-03-19T13:32:24.758Z,97346.00
2023-03-19T13:35:09.272Z,97350.00
2023-03-19T13:37:42.357Z,97344.00
2023-03-19T13:40:46.349Z,97346.00
2023-03-19T13:43:29.133Z,97347.00
2023-03-19T13:46:17.652Z,97337.00
2023-03-19T13:48:47.643Z,97338.00
2023-03-19T13:51:20.756Z,97335.00
2023-03-19T13:54:12.594Z,97338.00
2023-03-19T13:57:01.180Z,97335.00
2023-03-19T13:59:43.570Z,97337.00
2023-03-19T14:02:22.265Z,97340.00
2023-03-19T14:05:16.810Z,97344.00
2023-03-19T14:07:51.242Z,97332.00
2023-03-19T14:10:31.119Z,97345.00
2023-03-19T14:13:09.104Z,97328.00
2023-03-19T14:15:47.515Z,97344.00
2023-03-19T14:18:22.331Z,97340.00
2023-03-19T14:21:12.868Z,97348.00
2023-03-19T14:23:46.332Z,97337.00
2023-03-19T14:26:20.529Z,97340.00
2023-03-19T14:29:00.157Z,97340.00
2023-03-19T14:31:50.892Z,97337.00
2023-03-19T14:34:41.195Z,97344.00
2023-03-19T14:37:25.071Z,97347.00
2023-03-19T14:40:08.030Z,97336.00
2023-03-19T14:43:05.253Z,97344.00
2023-03-19T14:45:48.615Z,97339.00
2023-03-19T14:48:21.208Z,97338.00
2023-03-19T14:51:01.838Z,97343.00
2023-03-19T14:53:46.008Z,97344.00
2023-03-19T14:56:23.757Z,97349.00
2023-03-19T14:58:55.207Z,97336.00
2023-03-19T15:01:26.950Z,97340.00
2023-03-19T15:04:07.915Z,97327.00
2023-03-19T15:06:39.129Z,97330.00
2023-03-19T15:09:31.196Z,97330.00
2023-03-19T15:12:28.084Z,97327.00
2023-03-19T15:15:30.400Z,97336.00
2023-03-19T15:18:07.749Z,97338.00
2023-03-19T15:20:42.203Z,97331.00
2023-03-19T15:23:25.714Z,97341.00
2023-03-19T15:25:58.036Z,97333.00
2023-03-19T15:28:32.959Z,97334.00
2023-03-19T15:31:26.425Z,97341.00
2023-03-19T15:33:53.237Z,97346.00
2023-03-19T15:36:41.264Z,97341.00
2023-03-19T15:39:14.189Z,97348.00
2023-03-19T15:41:47.244Z,97339.00
2023-03-19T15:44:38.695Z,97354.00
2023-03-19T15:47:12.086Z,97348.00
2023-03-19T15:49:51.866Z,97344.00
2023-03-19T15:52:20.479Z,97350.00
2023-03-19T15:54:47.935Z,97356.00
2023-03-19T15:57:17.795Z,97365.00
2023-03-19T15:59:46.474Z,97362.00
2023-03-19T16:02:31.244Z,97357.00
2023-03-19T16:05:21.484Z,97357.00
2023-03-19T16:07:57.387Z,97364.00
2023-03-19T16:10:39.503Z,97364.00
2023-03-19T16:13:39.497Z,97367.00
2023-03-19T16:16:19.382Z,97363.00
2023-03-19T16:18:52.936Z,97354.00
2023-03-19T16:21:42.296Z,97358.00
2023-03-19T16:24:23.567Z,97370.00
2023-03-19T16:26:51.962Z,97367.00
2023-03-19T16:29:32.532Z,97385.00
2023-03-19T16:32:03.300Z,97382.00
2023-03-19T16:34:40.130Z,97377.00
2023-03-19T16:37:49.224Z,97387.00
2023-03-19T16:40:20.682Z,97395.00
2023-03-19T16:42:52.438Z,97393.00
2023-03-19T16:45:27.707Z,97385.00
2023-03-19T16:47:57.843Z,97402.00
2023-03-19T16:50:37.768Z,97403.00
2023-03-19T16:53:34.316Z,97410.00
2023-03-19T16:56:02.933Z,97418.00
2023-03-19T16:58:36.877Z,97419.00
2023-03-19T17:01:17.991Z,97414.00
2023-03-19T17:03:46.865Z,97428.00
2023-03-19T17:06:15.996Z,97430.00
2023-03-19T17:08:43.941Z,97435.00
2023-03-19T17:11:24.929Z,97424.00
2023-03-19T17:13:54.177Z,97432.00
2023-03-19T17:16:21.231Z,97441.00
2023-03-19T17:18:48.522Z,97440.00
2023-03-19T17:21:26.013Z,97442.00
2023-03-19T17:23:53.765Z,97445.00
2023-03-19T17:26:27.621Z,97448.00
2023-03-19T17:28:56.456Z,97449.00
2023-03-19T17:31:33.737Z,97441.00
2023-03-19T17:34:10.337Z,97450.00
2023-03-19T17:36:37.447Z,97442.00
2023-03-19T17:39:06.988Z,97449.00
2023-03-19T17:41:35.392Z,97464.00
2023-03-19T17:44:03.744Z,97466.00
2023-03-19T17:46:38.724Z,97462.00
2023-03-19T17:49:06.226Z,97454.00
2023-03-19T17:51:33.421Z,97458.00
2023-03-19T17:54:00.542Z,97471.00
2023-03-19T17:56:27.392Z,97467.00
2023-03-19T17:58:54.599Z,97477.00
2023-03-19T18:01:27.012Z,97477.00
2023-03-19T18:03:57.396Z,97473.00
2023-03-19T18:06:28.953Z,97485.00
2023-03-19T18:08:55.836Z,97486.00
2023-03-19T18:11:23.099Z,97479.00
2023-03-19T18:13:50.010Z,97494.00
2023-03-19T18:16:19.058Z,97499.00
2023-03-19T18:18:46.155Z,97496.00
2023-03-19T18:21:16.344Z,97500.00
2023-03-19T18:23:44.522Z,97494.00
2023-03-19T18:26:16.815Z,97488.00
2023-03-19T18:28:44.569Z,97499.00
2023-03-19T18:31:17.705Z,97497.00
2023-03-19T18:33:58.043Z,97505.00
2023-03-19T18:36:29.126Z,97522.00
2023-03-19T18:38:56.948Z,97515.00
2023-03-19T18:41:28.905Z,97499.00
2023-03-19T18:44:07.037Z,97500.00
2023-03-19T18:46:36.467Z,97514.00
2023-03-19T18:49:20.856Z,97509.00
2023-03-19T18:52:01.177Z,97514.00
2023-03-19T18:54:30.623Z,97519.00
2023-03-19T18:57:01.076Z,97518.00
2023-03-19T18:59:32.544Z,97515.00
2023-03-19T19:02:12.816Z,97516.00
2023-03-19T19:04:39.636Z,97524.00
2023-03-19T19:07:06.950Z,97525.00
2023-03-19T19:09:33.737Z,97540.00
2023-03-19T19:12:01.874Z,97530.00
2023-03-19T19:14:28.836Z,97542.00
2023-03-19T19:16:56.900Z,97551.00
2023-03-19T19:19:27.480Z,97544.00
2023-03-19T19:21:54.937Z,97552.00
2023-03-19T19:24:22.068Z,97549.00
2023-03-19T19:26:53.718Z,97552.00
2023-03-19T19:29:28.180Z,97570.00
2023-03-19T19:31:55.735Z,97563.00
2023-03-19T19:34:23.590Z,97566.00
2023-03-19T19:36:51.139Z,97580.00
2023-03-19T19:39:18.395Z,97573.00
2023-03-19T19:41:46.496Z,97580.00
2023-03-19T19:44:21.275Z,97587.00
2023-03-19T19:46:48.091Z,97582.00
2023-03-19T19:49:15.501Z,97580.00
2023-03-19T19:51:42.344Z,97601.00
2023-03-19T19:54:09.220Z,97600.00
2023-03-19T19:56:37.267Z,97590.00
2023-03-19T19:59:08.063Z,97590.00
2023-03-19T20:01:35.086Z,97589.00
2023-03-19T20:04:03.872Z,97595.00
2023-03-19T20:06:30.853Z,97597.00
2023-03-19T20:08:57.728Z,97600.00
2023-03-19T20:11:26.443Z,97594.00
2023-03-19T20:13:55.635Z,97601.00
2023-03-19T20:16:26.628Z,97596.00
2023-03-19T20:18:54.931Z,97596.00
2023-03-19T20:21:23.044Z,97613.00
2023-03-19T20:23:52.906Z,97613.00
2023-03-19T20:26:23.168Z,97602.00
2023-03-19T20:28:50.975Z,97600.00
2023-03-19T20:31:27.967Z,97600.00
2023-03-19T20:33:55.848Z,97613.00
2023-03-19T20:36:22.661Z,97609.00
2023-03-19T20:38:50.876Z,97617.00
2023-03-19T20:41:25.673Z,97614.00
2023-03-19T20:43:53.850Z,97629.00
2023-03-19T20:46:23.148Z,97624.00
2023-03-19T20:48:50.545Z,97628.00
2023-03-19T20:51:25.995Z,97623.00
2023-03-19T20:53:53.124Z,97628.00
2023-03-19T20:56:24.516Z,97621.00
2023-03-19T20:58:51.839Z,97628.00
2023-03-19T21:01:19.649Z,97650.00
2023-03-19T21:03:47.470Z,97647.00
2023-03-19T21:06:23.865Z,97649.00
2023-03-19T21:08:58.617Z,97647.00
2023-03-19T21:11:40.242Z,97655.00
2023-03-19T21:14:15.846Z,97653.00
2023-03-19T21:16:42.631Z,97654.00
2023-03-19T21:19:09.863Z,97651.00
2023-03-19T21:21:38.727Z,97653.00
2023-03-19T21:24:16.961Z,97648.00
2023-03-19T21:26:46.189Z,97653.00
2023-03-19T21:29:25.817Z,97663.00
2023-03-19T21:31:56.716Z,97659.00
2023-03-19T21:34:23.527Z,97656.00
2023-03-19T21:36:50.785Z,97645.00
2023-03-19T21:39:17.805Z,97652.00
2023-03-19T21:41:46.805Z,97644.00
2023-03-19T21:44:19.411Z,97653.00
2023-03-19T21:46:48.055Z,97653.00
2023-03-19T21:49:15.223Z,97658.00
2023-03-19T21:51:44.877Z,97660.00
2023-03-19T21:54:11.717Z,97652.00
2023-03-19T21:56:45.717Z,97667.00
2023-03-19T21:59:17.900Z,97663.00
2023-03-19T22:01:44.814Z,97670.00
2023-03-19T22:04:11.921Z,97659.00
2023-03-19T22:06:39.917Z,97642.00
2023-03-19T22:09:07.332Z,97661.00
2023-03-19T22:11:37.965Z,97644.00
2023-03-19T22:14:06.560Z,97654.00
2023-03-19T22:16:33.810Z,97642.00
2023-03-19T22:19:01.486Z,97661.00
2023-03-19T22:21:32.689Z,97657.00
2023-03-19T22:23:59.552Z,97666.00
2023-03-19T22:26:39.241Z,97655.00
2023-03-19T22:29:25.409Z,97657.00
2023-03-19T22:31:54.660Z,97662.00
2023-03-19T22:34:27.761Z,97657.00
2023-03-19T22:36:54.750Z,97674.00
2023-03-19T22:39:21.621Z,97678.00
2023-03-19T22:41:49.658Z,97661.00
2023-03-19T22:44:31.112Z,97661.00
2023-03-19T22:47:01.616Z,97666.00
2023-03-19T22:49:29.728Z,97659.00
2023-03-19T22:51:57.769Z,97670.00
2023-03-19T22:54:25.155Z,97671.00
2023-03-19T22:56:51.963Z,97658.00
2023-03-19T22:59:18.813Z,97657.00
2023-03-19T23:01:47.709Z,97657.00
2023-03-19T23:04:30.496Z,97657.00
2023-03-19T23:07:00.365Z,97660.00
2023-03-19T23:09:31.741Z,97663.00
2023-03-19T23:11:59.939Z,97662.00
2023-03-19T23:14:30.904Z,97666.00
2023-03-19T23:17:03.407Z,97660.00
2023-03-19T23:19:34.998Z,97655.00
2023-03-19T23:22:04.764Z,97663.00
2023-03-19T23:24:32.317Z,97653.00
2023-03-19T23:27:00.855Z,97661.00
2023-03-19T23:29:39.983Z,97669.00
2023-03-19T23:32:08.174Z,97674.00
2023-03-19T23:34:45.765Z,97674.00
2023-03-19T23:37:22.430Z,97682.00
2023-03-19T23:39:49.210Z,97668.00
2023-03-19T23:42:29.436Z,97671.00
2023-03-19T23:45:01.932Z,97679.00
2023-03-19T23:47:29.811Z,97699.00
2023-03-19T23:49:57.509Z,97694.00
2023-03-19T23:52:24.405Z,97684.00
2023-03-19T23:54:52.319Z,97685.00
2023-03-19T23:57:26.403Z,97690.00
2023-03-19T23:59:53.747Z,97695.00
